sensor_id;sensor_type;location;lat;lon;timestamp;temperature;humidity
7472;DHT22;3777;48.722;8.110;2023-06-22T00:01:45;24.80;99.90
7472;DHT22;3777;48.722;8.110;2023-06-22T00:04:12;24.70;99.90
7472;DHT22;3777;48.722;8.110;2023-06-22T00:06:39;24.70;99.90
7472;DHT22;3777;48.722;8.110;2023-06-22T00:09:06;24.60;99.90
7472;DHT22;3777;48.722;8.110;2023-06-22T00:11:34;24.40;99.90
7472;DHT22;3777;48.722;8.110;2023-06-22T00:14:01;24.40;99.90
7472;DHT22;3777;48.722;8.110;2023-06-22T00:16:28;24.40;99.90
7472;DHT22;3777;48.722;8.110;2023-06-22T00:18:55;24.40;99.90
7472;DHT22;3777;48.722;8.110;2023-06-22T00:21:26;24.30;99.90
7472;DHT22;3777;48.722;8.110;2023-06-22T00:23:52;24.20;99.90
7472;DHT22;3777;48.722;8.110;2023-06-22T00:26:19;24.20;99.90
7472;DHT22;3777;48.722;8.110;2023-06-22T00:28:48;24.20;99.90
7472;DHT22;3777;48.722;8.110;2023-06-22T00:31:15;24.10;99.90
7472;DHT22;3777;48.722;8.110;2023-06-22T00:33:42;24.00;99.90
7472;DHT22;3777;48.722;8.110;2023-06-22T00:36:09;23.90;99.90
7472;DHT22;3777;48.722;8.110;2023-06-22T00:38:38;23.80;99.90
7472;DHT22;3777;48.722;8.110;2023-06-22T00:41:05;23.80;99.90
7472;DHT22;3777;48.722;8.110;2023-06-22T00:43:32;23.70;99.90
7472;DHT22;3777;48.722;8.110;2023-06-22T00:46:01;23.70;99.90
7472;DHT22;3777;48.722;8.110;2023-06-22T00:48:28;23.60;99.90
7472;DHT22;3777;48.722;8.110;2023-06-22T00:50:55;23.60;99.90
7472;DHT22;3777;48.722;8.110;2023-06-22T00:53:22;23.50;99.90
7472;DHT22;3777;48.722;8.110;2023-06-22T00:55:49;23.50;99.90
7472;DHT22;3777;48.722;8.110;2023-06-22T00:58:18;23.50;99.90
7472;DHT22;3777;48.722;8.110;2023-06-22T01:00:47;23.50;99.90
7472;DHT22;3777;48.722;8.110;2023-06-22T01:03:16;23.40;99.90
7472;DHT22;3777;48.722;8.110;2023-06-22T01:05:44;23.40;99.90
7472;DHT22;3777;48.722;8.110;2023-06-22T01:08:20;23.30;99.90
7472;DHT22;3777;48.722;8.110;2023-06-22T01:10:52;23.30;99.90
7472;DHT22;3777;48.722;8.110;2023-06-22T01:13:28;23.30;99.90
7472;DHT22;3777;48.722;8.110;2023-06-22T01:16:01;23.30;99.90
7472;DHT22;3777;48.722;8.110;2023-06-22T01:18:32;23.20;99.90
7472;DHT22;3777;48.722;8.110;2023-06-22T01:21:02;23.10;99.90
7472;DHT22;3777;48.722;8.110;2023-06-22T01:23:44;23.10;99.90
7472;DHT22;3777;48.722;8.110;2023-06-22T01:26:18;23.10;99.90
7472;DHT22;3777;48.722;8.110;2023-06-22T01:28:50;23.00;99.90
7472;DHT22;3777;48.722;8.110;2023-06-22T01:31:19;22.90;99.90
7472;DHT22;3777;48.722;8.110;2023-06-22T01:33:50;22.90;99.90
7472;DHT22;3777;48.722;8.110;2023-06-22T01:36:18;22.80;99.90
7472;DHT22;3777;48.722;8.110;2023-06-22T01:38:46;22.70;99.90
7472;DHT22;3777;48.722;8.110;2023-06-22T01:41:13;22.60;99.90
7472;DHT22;3777;48.722;8.110;2023-06-22T01:43:41;22.60;99.90
7472;DHT22;3777;48.722;8.110;2023-06-22T01:46:11;22.50;99.90
7472;DHT22;3777;48.722;8.110;2023-06-22T01:48:39;22.40;99.90
7472;DHT22;3777;48.722;8.110;2023-06-22T01:51:06;22.40;99.90
7472;DHT22;3777;48.722;8.110;2023-06-22T01:53:33;22.40;99.90
7472;DHT22;3777;48.722;8.110;2023-06-22T01:56:00;22.30;99.90
7472;DHT22;3777;48.722;8.110;2023-06-22T01:58:29;22.30;99.90
7472;DHT22;3777;48.722;8.110;2023-06-22T02:01:00;22.30;99.90
7472;DHT22;3777;48.722;8.110;2023-06-22T02:03:34;22.30;99.90
7472;DHT22;3777;48.722;8.110;2023-06-22T02:06:04;22.30;99.90
7472;DHT22;3777;48.722;8.110;2023-06-22T02:08:36;22.30;99.90
7472;DHT22;3777;48.722;8.110;2023-06-22T02:11:06;22.30;99.90
7472;DHT22;3777;48.722;8.110;2023-06-22T02:13:34;22.30;99.90
7472;DHT22;3777;48.722;8.110;2023-06-22T02:16:02;22.30;99.90
7472;DHT22;3777;48.722;8.110;2023-06-22T02:18:31;22.30;99.90
7472;DHT22;3777;48.722;8.110;2023-06-22T02:21:01;22.30;99.90
7472;DHT22;3777;48.722;8.110;2023-06-22T02:23:28;22.30;99.90
7472;DHT22;3777;48.722;8.110;2023-06-22T02:25:55;22.30;99.90
7472;DHT22;3777;48.722;8.110;2023-06-22T02:28:22;22.30;99.90
7472;DHT22;3777;48.722;8.110;2023-06-22T02:30:49;22.30;99.90
7472;DHT22;3777;48.722;8.110;2023-06-22T02:33:15;22.20;99.90
7472;DHT22;3777;48.722;8.110;2023-06-22T02:35:44;22.10;99.90
7472;DHT22;3777;48.722;8.110;2023-06-22T02:38:14;22.10;99.90
7472;DHT22;3777;48.722;8.110;2023-06-22T02:40:43;22.10;99.90
7472;DHT22;3777;48.722;8.110;2023-06-22T02:43:10;22.00;99.90
7472;DHT22;3777;48.722;8.110;2023-06-22T02:45:37;22.00;99.90
7472;DHT22;3777;48.722;8.110;2023-06-22T02:48:04;22.10;99.90
7472;DHT22;3777;48.722;8.110;2023-06-22T02:50:31;22.00;99.90
7472;DHT22;3777;48.722;8.110;2023-06-22T02:53:00;22.00;99.90
7472;DHT22;3777;48.722;8.110;2023-06-22T02:55:26;22.00;99.90
7472;DHT22;3777;48.722;8.110;2023-06-22T02:57:54;22.00;99.90
7472;DHT22;3777;48.722;8.110;2023-06-22T03:00:20;21.90;99.90
7472;DHT22;3777;48.722;8.110;2023-06-22T03:02:48;21.90;99.90
7472;DHT22;3777;48.722;8.110;2023-06-22T03:05:16;21.80;99.90
7472;DHT22;3777;48.722;8.110;2023-06-22T03:07:44;21.80;99.90
7472;DHT22;3777;48.722;8.110;2023-06-22T03:10:13;21.80;99.90
7472;DHT22;3777;48.722;8.110;2023-06-22T03:12:41;21.80;99.90
7472;DHT22;3777;48.722;8.110;2023-06-22T03:15:10;21.80;99.90
7472;DHT22;3777;48.722;8.110;2023-06-22T03:17:38;21.70;99.90
7472;DHT22;3777;48.722;8.110;2023-06-22T03:20:06;21.70;99.90
7472;DHT22;3777;48.722;8.110;2023-06-22T03:22:34;21.70;99.90
7472;DHT22;3777;48.722;8.110;2023-06-22T03:25:01;21.70;99.90
7472;DHT22;3777;48.722;8.110;2023-06-22T03:27:30;21.70;99.90
7472;DHT22;3777;48.722;8.110;2023-06-22T03:29:57;21.70;99.90
7472;DHT22;3777;48.722;8.110;2023-06-22T03:32:24;21.70;99.90
7472;DHT22;3777;48.722;8.110;2023-06-22T03:34:53;21.70;99.90
7472;DHT22;3777;48.722;8.110;2023-06-22T03:37:24;21.70;99.90
7472;DHT22;3777;48.722;8.110;2023-06-22T03:39:51;21.70;99.90
7472;DHT22;3777;48.722;8.110;2023-06-22T03:42:18;21.70;99.90
7472;DHT22;3777;48.722;8.110;2023-06-22T03:44:46;21.70;99.90
7472;DHT22;3777;48.722;8.110;2023-06-22T03:47:13;21.70;99.90
7472;DHT22;3777;48.722;8.110;2023-06-22T03:49:40;21.70;99.90
7472;DHT22;3777;48.722;8.110;2023-06-22T03:52:07;21.70;99.90
7472;DHT22;3777;48.722;8.110;2023-06-22T03:54:34;21.70;99.90
7472;DHT22;3777;48.722;8.110;2023-06-22T03:57:01;21.80;99.90
7472;DHT22;3777;48.722;8.110;2023-06-22T03:59:28;21.80;99.90
7472;DHT22;3777;48.722;8.110;2023-06-22T04:01:57;21.80;99.90
7472;DHT22;3777;48.722;8.110;2023-06-22T04:04:24;21.90;99.90
7472;DHT22;3777;48.722;8.110;2023-06-22T04:06:50;21.90;99.90
7472;DHT22;3777;48.722;8.110;2023-06-22T04:09:17;21.90;99.90
7472;DHT22;3777;48.722;8.110;2023-06-22T04:11:44;22.00;99.90
7472;DHT22;3777;48.722;8.110;2023-06-22T04:14:11;22.00;99.90
7472;DHT22;3777;48.722;8.110;2023-06-22T04:16:38;22.00;99.90
7472;DHT22;3777;48.722;8.110;2023-06-22T04:19:06;22.00;99.90
7472;DHT22;3777;48.722;8.110;2023-06-22T04:21:39;22.10;99.90
7472;DHT22;3777;48.722;8.110;2023-06-22T04:24:06;22.20;99.90
7472;DHT22;3777;48.722;8.110;2023-06-22T04:26:33;22.20;99.90
7472;DHT22;3777;48.722;8.110;2023-06-22T04:29:02;22.30;99.90
7472;DHT22;3777;48.722;8.110;2023-06-22T04:31:31;22.30;99.90
7472;DHT22;3777;48.722;8.110;2023-06-22T04:34:02;22.40;99.90
7472;DHT22;3777;48.722;8.110;2023-06-22T04:36:34;22.40;99.90
7472;DHT22;3777;48.722;8.110;2023-06-22T04:39:05;22.40;99.90
7472;DHT22;3777;48.722;8.110;2023-06-22T04:41:36;22.40;99.90
7472;DHT22;3777;48.722;8.110;2023-06-22T04:44:11;22.50;99.90
7472;DHT22;3777;48.722;8.110;2023-06-22T04:46:39;22.50;99.90
7472;DHT22;3777;48.722;8.110;2023-06-22T04:49:06;22.40;99.90
7472;DHT22;3777;48.722;8.110;2023-06-22T04:51:39;22.50;99.90
7472;DHT22;3777;48.722;8.110;2023-06-22T04:54:06;22.60;99.90
7472;DHT22;3777;48.722;8.110;2023-06-22T04:56:33;22.70;99.90
7472;DHT22;3777;48.722;8.110;2023-06-22T04:59:00;22.90;99.90
7472;DHT22;3777;48.722;8.110;2023-06-22T05:01:28;23.00;99.90
7472;DHT22;3777;48.722;8.110;2023-06-22T05:03:57;23.20;99.90
7472;DHT22;3777;48.722;8.110;2023-06-22T05:06:27;23.40;99.90
7472;DHT22;3777;48.722;8.110;2023-06-22T05:08:56;23.60;99.90
7472;DHT22;3777;48.722;8.110;2023-06-22T05:11:24;23.70;99.90
7472;DHT22;3777;48.722;8.110;2023-06-22T05:13:51;23.90;99.90
7472;DHT22;3777;48.722;8.110;2023-06-22T05:16:19;24.10;99.90
7472;DHT22;3777;48.722;8.110;2023-06-22T05:18:50;24.10;99.90
7472;DHT22;3777;48.722;8.110;2023-06-22T05:21:17;24.20;99.90
7472;DHT22;3777;48.722;8.110;2023-06-22T05:23:44;24.30;99.90
7472;DHT22;3777;48.722;8.110;2023-06-22T05:26:13;24.40;99.90
7472;DHT22;3777;48.722;8.110;2023-06-22T05:28:39;24.60;99.90
7472;DHT22;3777;48.722;8.110;2023-06-22T05:31:07;24.70;99.90
7472;DHT22;3777;48.722;8.110;2023-06-22T05:33:33;24.90;99.90
7472;DHT22;3777;48.722;8.110;2023-06-22T05:36:00;25.20;99.90
7472;DHT22;3777;48.722;8.110;2023-06-22T05:38:27;25.50;99.90
7472;DHT22;3777;48.722;8.110;2023-06-22T05:40:55;25.90;99.90
7472;DHT22;3777;48.722;8.110;2023-06-22T05:43:23;26.20;99.90
7472;DHT22;3777;48.722;8.110;2023-06-22T05:45:50;26.60;99.90
7472;DHT22;3777;48.722;8.110;2023-06-22T05:48:17;26.80;99.90
7472;DHT22;3777;48.722;8.110;2023-06-22T05:50:44;27.20;99.90
7472;DHT22;3777;48.722;8.110;2023-06-22T05:53:11;27.70;99.90
7472;DHT22;3777;48.722;8.110;2023-06-22T05:55:38;27.90;99.90
7472;DHT22;3777;48.722;8.110;2023-06-22T05:58:05;28.00;99.90
7472;DHT22;3777;48.722;8.110;2023-06-22T06:00:33;28.20;99.90
7472;DHT22;3777;48.722;8.110;2023-06-22T06:03:00;28.30;99.90
7472;DHT22;3777;48.722;8.110;2023-06-22T06:05:28;28.30;99.90
7472;DHT22;3777;48.722;8.110;2023-06-22T06:07:55;28.50;99.90
7472;DHT22;3777;48.722;8.110;2023-06-22T06:10:23;28.70;99.90
7472;DHT22;3777;48.722;8.110;2023-06-22T06:12:50;29.10;99.90
7472;DHT22;3777;48.722;8.110;2023-06-22T06:15:17;29.20;99.90
7472;DHT22;3777;48.722;8.110;2023-06-22T06:17:49;29.40;99.90
7472;DHT22;3777;48.722;8.110;2023-06-22T06:20:20;29.80;99.90
7472;DHT22;3777;48.722;8.110;2023-06-22T06:22:47;30.10;99.90
7472;DHT22;3777;48.722;8.110;2023-06-22T06:25:14;30.50;99.90
7472;DHT22;3777;48.722;8.110;2023-06-22T06:27:42;30.90;99.90
7472;DHT22;3777;48.722;8.110;2023-06-22T06:30:11;31.20;99.90
7472;DHT22;3777;48.722;8.110;2023-06-22T06:32:38;31.40;99.90
7472;DHT22;3777;48.722;8.110;2023-06-22T06:35:08;31.60;99.90
7472;DHT22;3777;48.722;8.110;2023-06-22T06:37:37;31.90;99.90
7472;DHT22;3777;48.722;8.110;2023-06-22T06:40:05;32.00;99.90
7472;DHT22;3777;48.722;8.110;2023-06-22T06:42:34;32.40;99.90
7472;DHT22;3777;48.722;8.110;2023-06-22T06:45:03;32.90;99.90
7472;DHT22;3777;48.722;8.110;2023-06-22T06:47:30;33.50;99.90
7472;DHT22;3777;48.722;8.110;2023-06-22T06:49:57;34.00;99.90
7472;DHT22;3777;48.722;8.110;2023-06-22T06:52:26;34.80;99.90
7472;DHT22;3777;48.722;8.110;2023-06-22T06:54:53;35.70;99.90
7472;DHT22;3777;48.722;8.110;2023-06-22T06:57:20;36.40;99.90
7472;DHT22;3777;48.722;8.110;2023-06-22T06:59:48;36.30;99.00
7472;DHT22;3777;48.722;8.110;2023-06-22T07:02:15;35.90;98.40
7472;DHT22;3777;48.722;8.110;2023-06-22T07:04:42;36.20;97.70
7472;DHT22;3777;48.722;8.110;2023-06-22T07:07:09;36.00;97.60
7472;DHT22;3777;48.722;8.110;2023-06-22T07:09:37;33.80;99.50
7472;DHT22;3777;48.722;8.110;2023-06-22T07:12:05;34.40;99.90
7472;DHT22;3777;48.722;8.110;2023-06-22T07:14:32;34.30;99.90
7472;DHT22;3777;48.722;8.110;2023-06-22T07:16:59;33.90;99.90
7472;DHT22;3777;48.722;8.110;2023-06-22T07:19:27;33.90;99.90
7472;DHT22;3777;48.722;8.110;2023-06-22T07:21:54;32.80;99.90
7472;DHT22;3777;48.722;8.110;2023-06-22T07:24:22;33.30;99.90
7472;DHT22;3777;48.722;8.110;2023-06-22T07:26:51;34.00;99.90
7472;DHT22;3777;48.722;8.110;2023-06-22T07:29:18;33.70;99.90
7472;DHT22;3777;48.722;8.110;2023-06-22T07:31:46;33.70;99.90
7472;DHT22;3777;48.722;8.110;2023-06-22T07:34:15;32.60;99.90
7472;DHT22;3777;48.722;8.110;2023-06-22T07:36:42;32.20;99.90
7472;DHT22;3777;48.722;8.110;2023-06-22T07:39:09;32.50;99.90
7472;DHT22;3777;48.722;8.110;2023-06-22T07:41:38;31.90;99.90
7472;DHT22;3777;48.722;8.110;2023-06-22T07:44:07;31.40;99.90
7472;DHT22;3777;48.722;8.110;2023-06-22T07:46:34;31.50;99.90
7472;DHT22;3777;48.722;8.110;2023-06-22T07:49:01;31.60;99.90
7472;DHT22;3777;48.722;8.110;2023-06-22T07:51:28;31.60;99.90
7472;DHT22;3777;48.722;8.110;2023-06-22T07:53:55;30.50;99.90
7472;DHT22;3777;48.722;8.110;2023-06-22T07:56:22;30.10;99.90
7472;DHT22;3777;48.722;8.110;2023-06-22T07:58:49;29.50;99.90
7472;DHT22;3777;48.722;8.110;2023-06-22T08:01:17;29.80;99.90
7472;DHT22;3777;48.722;8.110;2023-06-22T08:03:47;30.10;99.90
7472;DHT22;3777;48.722;8.110;2023-06-22T08:06:17;29.70;99.90
7472;DHT22;3777;48.722;8.110;2023-06-22T08:08:44;28.80;99.90
7472;DHT22;3777;48.722;8.110;2023-06-22T08:11:13;29.00;99.90
7472;DHT22;3777;48.722;8.110;2023-06-22T08:13:40;30.20;99.90
7472;DHT22;3777;48.722;8.110;2023-06-22T08:16:07;31.50;99.90
7472;DHT22;3777;48.722;8.110;2023-06-22T08:18:35;33.10;99.90
7472;DHT22;3777;48.722;8.110;2023-06-22T08:21:02;34.20;99.90
7472;DHT22;3777;48.722;8.110;2023-06-22T08:23:29;34.70;99.90
7472;DHT22;3777;48.722;8.110;2023-06-22T08:25:56;34.70;99.90
7472;DHT22;3777;48.722;8.110;2023-06-22T08:28:23;34.20;99.90
7472;DHT22;3777;48.722;8.110;2023-06-22T08:30:50;32.80;99.90
7472;DHT22;3777;48.722;8.110;2023-06-22T08:33:17;33.10;99.90
7472;DHT22;3777;48.722;8.110;2023-06-22T08:35:45;33.90;99.90
7472;DHT22;3777;48.722;8.110;2023-06-22T08:38:12;34.10;99.90
7472;DHT22;3777;48.722;8.110;2023-06-22T08:40:41;34.20;99.90
7472;DHT22;3777;48.722;8.110;2023-06-22T08:43:08;34.30;99.90
7472;DHT22;3777;48.722;8.110;2023-06-22T08:45:35;34.30;99.90
7472;DHT22;3777;48.722;8.110;2023-06-22T08:48:02;34.50;99.90
7472;DHT22;3777;48.722;8.110;2023-06-22T08:50:31;34.90;99.90
7472;DHT22;3777;48.722;8.110;2023-06-22T08:53:00;35.30;99.90
7472;DHT22;3777;48.722;8.110;2023-06-22T08:55:27;35.70;99.90
7472;DHT22;3777;48.722;8.110;2023-06-22T08:57:54;37.10;99.10
7472;DHT22;3777;48.722;8.110;2023-06-22T09:00:21;37.60;97.00
7472;DHT22;3777;48.722;8.110;2023-06-22T09:02:48;39.10;95.10
7472;DHT22;3777;48.722;8.110;2023-06-22T09:05:15;40.60;91.30
7472;DHT22;3777;48.722;8.110;2023-06-22T09:07:42;40.90;89.90
7472;DHT22;3777;48.722;8.110;2023-06-22T09:10:11;39.70;84.30
7472;DHT22;3777;48.722;8.110;2023-06-22T09:12:39;39.20;81.30
7472;DHT22;3777;48.722;8.110;2023-06-22T09:15:07;38.80;85.80
7472;DHT22;3777;48.722;8.110;2023-06-22T09:17:34;37.90;85.40
7472;DHT22;3777;48.722;8.110;2023-06-22T09:20:02;36.80;87.60
7472;DHT22;3777;48.722;8.110;2023-06-22T09:22:31;36.10;90.10
7472;DHT22;3777;48.722;8.110;2023-06-22T09:24:59;35.60;91.00
7472;DHT22;3777;48.722;8.110;2023-06-22T09:27:27;35.20;92.50
7472;DHT22;3777;48.722;8.110;2023-06-22T09:29:54;35.00;93.20
7472;DHT22;3777;48.722;8.110;2023-06-22T09:32:23;34.70;93.50
7472;DHT22;3777;48.722;8.110;2023-06-22T09:34:50;34.30;95.60
7472;DHT22;3777;48.722;8.110;2023-06-22T09:37:18;34.00;95.80
7472;DHT22;3777;48.722;8.110;2023-06-22T09:39:45;33.60;95.70
7472;DHT22;3777;48.722;8.110;2023-06-22T09:42:12;33.20;97.40
7472;DHT22;3777;48.722;8.110;2023-06-22T09:44:41;32.90;99.10
7472;DHT22;3777;48.722;8.110;2023-06-22T09:47:08;32.70;99.30
7472;DHT22;3777;48.722;8.110;2023-06-22T09:49:35;32.60;99.90
7472;DHT22;3777;48.722;8.110;2023-06-22T09:52:02;32.00;99.90
7472;DHT22;3777;48.722;8.110;2023-06-22T09:54:29;31.80;99.90
7472;DHT22;3777;48.722;8.110;2023-06-22T09:56:55;32.70;99.90
7472;DHT22;3777;48.722;8.110;2023-06-22T09:59:22;33.40;99.90
7472;DHT22;3777;48.722;8.110;2023-06-22T10:01:51;34.40;99.10
7472;DHT22;3777;48.722;8.110;2023-06-22T10:04:18;34.90;97.40
7472;DHT22;3777;48.722;8.110;2023-06-22T10:06:45;35.00;98.40
7472;DHT22;3777;48.722;8.110;2023-06-22T10:09:12;34.90;97.70
7472;DHT22;3777;48.722;8.110;2023-06-22T10:11:39;34.70;98.10
7472;DHT22;3777;48.722;8.110;2023-06-22T10:14:05;34.60;98.20
7472;DHT22;3777;48.722;8.110;2023-06-22T10:16:33;34.20;98.50
7472;DHT22;3777;48.722;8.110;2023-06-22T10:19:02;34.60;98.30
7472;DHT22;3777;48.722;8.110;2023-06-22T10:21:29;34.70;96.60
7472;DHT22;3777;48.722;8.110;2023-06-22T10:23:57;34.70;96.80
7472;DHT22;3777;48.722;8.110;2023-06-22T10:26:24;34.40;98.10
7472;DHT22;3777;48.722;8.110;2023-06-22T10:28:54;34.40;98.10
7472;DHT22;3777;48.722;8.110;2023-06-22T10:31:21;34.20;97.10
7472;DHT22;3777;48.722;8.110;2023-06-22T10:33:51;34.20;96.70
7472;DHT22;3777;48.722;8.110;2023-06-22T10:36:20;34.60;98.40
7472;DHT22;3777;48.722;8.110;2023-06-22T10:38:48;34.90;96.70
7472;DHT22;3777;48.722;8.110;2023-06-22T10:41:15;34.90;95.70
7472;DHT22;3777;48.722;8.110;2023-06-22T10:43:42;34.70;97.50
7472;DHT22;3777;48.722;8.110;2023-06-22T10:46:09;35.10;98.00
7472;DHT22;3777;48.722;8.110;2023-06-22T10:48:36;35.20;96.40
7472;DHT22;3777;48.722;8.110;2023-06-22T10:51:03;35.40;96.20
7472;DHT22;3777;48.722;8.110;2023-06-22T10:53:32;35.60;96.40
7472;DHT22;3777;48.722;8.110;2023-06-22T10:55:59;35.60;96.10
7472;DHT22;3777;48.722;8.110;2023-06-22T10:58:26;35.90;94.80
7472;DHT22;3777;48.722;8.110;2023-06-22T11:00:53;36.60;94.40
7472;DHT22;3777;48.722;8.110;2023-06-22T11:03:20;36.90;93.10
7472;DHT22;3777;48.722;8.110;2023-06-22T11:05:48;37.00;92.80
7472;DHT22;3777;48.722;8.110;2023-06-22T11:08:15;36.70;92.40
7472;DHT22;3777;48.722;8.110;2023-06-22T11:10:44;36.20;93.60
7472;DHT22;3777;48.722;8.110;2023-06-22T11:13:11;35.70;93.20
7472;DHT22;3777;48.722;8.110;2023-06-22T11:15:38;35.40;94.30
7472;DHT22;3777;48.722;8.110;2023-06-22T11:18:05;35.40;96.60
7472;DHT22;3777;48.722;8.110;2023-06-22T11:20:33;35.50;95.10
7472;DHT22;3777;48.722;8.110;2023-06-22T11:23:04;35.70;96.10
7472;DHT22;3777;48.722;8.110;2023-06-22T11:25:31;35.60;96.90
7472;DHT22;3777;48.722;8.110;2023-06-22T11:28:02;35.50;97.70
7472;DHT22;3777;48.722;8.110;2023-06-22T11:30:29;35.40;97.40
7472;DHT22;3777;48.722;8.110;2023-06-22T11:32:58;34.90;97.10
7472;DHT22;3777;48.722;8.110;2023-06-22T11:35:25;34.80;99.10
7472;DHT22;3777;48.722;8.110;2023-06-22T11:37:52;34.90;97.60
7472;DHT22;3777;48.722;8.110;2023-06-22T11:40:19;35.20;97.00
7472;DHT22;3777;48.722;8.110;2023-06-22T11:42:46;35.00;97.80
7472;DHT22;3777;48.722;8.110;2023-06-22T11:45:15;35.20;96.40
7472;DHT22;3777;48.722;8.110;2023-06-22T11:47:43;35.30;96.70
7472;DHT22;3777;48.722;8.110;2023-06-22T11:50:10;35.30;97.60
7472;DHT22;3777;48.722;8.110;2023-06-22T11:52:37;35.00;97.90
7472;DHT22;3777;48.722;8.110;2023-06-22T11:55:05;34.20;98.30
7472;DHT22;3777;48.722;8.110;2023-06-22T11:57:33;33.80;99.40
7472;DHT22;3777;48.722;8.110;2023-06-22T12:00:01;33.80;99.80
7472;DHT22;3777;48.722;8.110;2023-06-22T12:02:33;34.00;99.20
7472;DHT22;3777;48.722;8.110;2023-06-22T12:05:00;34.30;99.50
7472;DHT22;3777;48.722;8.110;2023-06-22T12:07:30;34.10;99.60
7472;DHT22;3777;48.722;8.110;2023-06-22T12:09:57;34.10;99.80
7472;DHT22;3777;48.722;8.110;2023-06-22T12:12:24;34.00;99.90
7472;DHT22;3777;48.722;8.110;2023-06-22T12:14:51;33.60;99.90
7472;DHT22;3777;48.722;8.110;2023-06-22T12:17:18;33.20;99.90
7472;DHT22;3777;48.722;8.110;2023-06-22T12:19:46;32.50;99.90
7472;DHT22;3777;48.722;8.110;2023-06-22T12:22:13;32.10;99.90
7472;DHT22;3777;48.722;8.110;2023-06-22T12:24:40;31.90;99.90
7472;DHT22;3777;48.722;8.110;2023-06-22T12:27:07;31.70;99.90
7472;DHT22;3777;48.722;8.110;2023-06-22T12:29:34;31.50;99.90
7472;DHT22;3777;48.722;8.110;2023-06-22T12:32:01;31.40;99.90
7472;DHT22;3777;48.722;8.110;2023-06-22T12:34:28;31.50;99.90
7472;DHT22;3777;48.722;8.110;2023-06-22T12:36:56;31.50;99.90
7472;DHT22;3777;48.722;8.110;2023-06-22T12:39:23;31.70;99.90
7472;DHT22;3777;48.722;8.110;2023-06-22T12:41:50;31.60;99.90
7472;DHT22;3777;48.722;8.110;2023-06-22T12:44:17;32.10;99.90
7472;DHT22;3777;48.722;8.110;2023-06-22T12:46:44;32.60;99.90
7472;DHT22;3777;48.722;8.110;2023-06-22T12:49:11;32.90;99.90
7472;DHT22;3777;48.722;8.110;2023-06-22T12:51:40;32.90;99.90
7472;DHT22;3777;48.722;8.110;2023-06-22T12:54:09;33.00;99.90
7472;DHT22;3777;48.722;8.110;2023-06-22T12:56:36;33.20;99.90
7472;DHT22;3777;48.722;8.110;2023-06-22T12:59:03;33.10;99.90
7472;DHT22;3777;48.722;8.110;2023-06-22T13:01:30;32.90;99.90
7472;DHT22;3777;48.722;8.110;2023-06-22T13:03:58;33.00;99.90
7472;DHT22;3777;48.722;8.110;2023-06-22T13:06:25;33.10;99.90
7472;DHT22;3777;48.722;8.110;2023-06-22T13:08:52;33.10;99.90
7472;DHT22;3777;48.722;8.110;2023-06-22T13:11:20;32.90;99.90
7472;DHT22;3777;48.722;8.110;2023-06-22T13:13:47;33.10;99.90
7472;DHT22;3777;48.722;8.110;2023-06-22T13:16:14;33.40;99.90
7472;DHT22;3777;48.722;8.110;2023-06-22T13:18:41;33.60;99.90
7472;DHT22;3777;48.722;8.110;2023-06-22T13:21:08;33.30;99.90
7472;DHT22;3777;48.722;8.110;2023-06-22T13:23:35;33.00;99.90
7472;DHT22;3777;48.722;8.110;2023-06-22T13:26:02;32.90;99.90
7472;DHT22;3777;48.722;8.110;2023-06-22T13:28:31;32.80;99.90
7472;DHT22;3777;48.722;8.110;2023-06-22T13:30:57;32.80;99.90
7472;DHT22;3777;48.722;8.110;2023-06-22T13:33:24;32.30;99.90
7472;DHT22;3777;48.722;8.110;2023-06-22T13:35:51;32.10;99.90
7472;DHT22;3777;48.722;8.110;2023-06-22T13:38:19;31.80;99.90
7472;DHT22;3777;48.722;8.110;2023-06-22T13:40:46;31.70;99.90
7472;DHT22;3777;48.722;8.110;2023-06-22T13:43:14;31.70;99.90
7472;DHT22;3777;48.722;8.110;2023-06-22T13:45:43;31.80;99.90
7472;DHT22;3777;48.722;8.110;2023-06-22T13:48:13;32.00;99.90
7472;DHT22;3777;48.722;8.110;2023-06-22T13:50:39;31.70;99.90
7472;DHT22;3777;48.722;8.110;2023-06-22T13:53:06;31.60;99.90
7472;DHT22;3777;48.722;8.110;2023-06-22T13:55:33;31.70;99.90
7472;DHT22;3777;48.722;8.110;2023-06-22T13:58:00;31.80;99.90
7472;DHT22;3777;48.722;8.110;2023-06-22T14:00:27;31.90;99.90
7472;DHT22;3777;48.722;8.110;2023-06-22T14:02:56;32.10;99.90
7472;DHT22;3777;48.722;8.110;2023-06-22T14:05:22;32.30;99.90
7472;DHT22;3777;48.722;8.110;2023-06-22T14:07:49;32.50;99.90
7472;DHT22;3777;48.722;8.110;2023-06-22T14:10:16;32.70;99.90
7472;DHT22;3777;48.722;8.110;2023-06-22T14:12:43;32.80;99.90
7472;DHT22;3777;48.722;8.110;2023-06-22T14:15:11;32.80;99.90
7472;DHT22;3777;48.722;8.110;2023-06-22T14:17:38;32.90;99.90
7472;DHT22;3777;48.722;8.110;2023-06-22T14:20:07;33.00;99.90
7472;DHT22;3777;48.722;8.110;2023-06-22T14:22:35;33.20;99.90
7472;DHT22;3777;48.722;8.110;2023-06-22T14:25:02;33.20;99.90
7472;DHT22;3777;48.722;8.110;2023-06-22T14:27:29;33.30;99.90
7472;DHT22;3777;48.722;8.110;2023-06-22T14:29:56;33.50;99.90
7472;DHT22;3777;48.722;8.110;2023-06-22T14:32:23;33.50;99.90
7472;DHT22;3777;48.722;8.110;2023-06-22T14:34:50;33.50;99.90
7472;DHT22;3777;48.722;8.110;2023-06-22T14:37:19;33.40;99.90
7472;DHT22;3777;48.722;8.110;2023-06-22T14:39:45;33.00;99.90
7472;DHT22;3777;48.722;8.110;2023-06-22T14:42:12;32.40;99.90
7472;DHT22;3777;48.722;8.110;2023-06-22T14:44:39;32.00;99.90
7472;DHT22;3777;48.722;8.110;2023-06-22T14:47:07;32.00;99.90
7472;DHT22;3777;48.722;8.110;2023-06-22T14:49:34;31.90;99.90
7472;DHT22;3777;48.722;8.110;2023-06-22T14:52:02;32.10;99.90
7472;DHT22;3777;48.722;8.110;2023-06-22T14:54:30;32.20;99.90
7472;DHT22;3777;48.722;8.110;2023-06-22T14:56:57;32.30;99.90
7472;DHT22;3777;48.722;8.110;2023-06-22T14:59:24;32.20;99.90
7472;DHT22;3777;48.722;8.110;2023-06-22T15:01:51;32.20;99.90
7472;DHT22;3777;48.722;8.110;2023-06-22T15:04:18;32.40;99.90
7472;DHT22;3777;48.722;8.110;2023-06-22T15:06:45;32.30;99.90
7472;DHT22;3777;48.722;8.110;2023-06-22T15:09:12;32.50;99.90
7472;DHT22;3777;48.722;8.110;2023-06-22T15:11:40;32.70;99.90
7472;DHT22;3777;48.722;8.110;2023-06-22T15:14:07;32.60;99.90
7472;DHT22;3777;48.722;8.110;2023-06-22T15:16:34;32.10;99.90
7472;DHT22;3777;48.722;8.110;2023-06-22T15:19:01;32.30;99.90
7472;DHT22;3777;48.722;8.110;2023-06-22T15:21:28;32.40;99.90
7472;DHT22;3777;48.722;8.110;2023-06-22T15:23:55;32.30;99.90
7472;DHT22;3777;48.722;8.110;2023-06-22T15:26:22;32.40;99.90
7472;DHT22;3777;48.722;8.110;2023-06-22T15:28:50;32.50;99.90
7472;DHT22;3777;48.722;8.110;2023-06-22T15:31:17;32.50;99.90
7472;DHT22;3777;48.722;8.110;2023-06-22T15:33:44;32.40;99.90
7472;DHT22;3777;48.722;8.110;2023-06-22T15:36:11;32.30;99.90
7472;DHT22;3777;48.722;8.110;2023-06-22T15:38:38;32.30;99.90
7472;DHT22;3777;48.722;8.110;2023-06-22T15:41:05;32.30;99.90
7472;DHT22;3777;48.722;8.110;2023-06-22T15:43:32;32.20;99.90
7472;DHT22;3777;48.722;8.110;2023-06-22T15:46:00;32.30;99.90
7472;DHT22;3777;48.722;8.110;2023-06-22T15:48:27;32.10;99.90
7472;DHT22;3777;48.722;8.110;2023-06-22T15:50:54;32.10;99.90
7472;DHT22;3777;48.722;8.110;2023-06-22T15:53:21;32.10;99.90
7472;DHT22;3777;48.722;8.110;2023-06-22T15:55:48;32.10;99.90
7472;DHT22;3777;48.722;8.110;2023-06-22T15:58:15;32.10;99.90
7472;DHT22;3777;48.722;8.110;2023-06-22T16:00:42;32.00;99.90
7472;DHT22;3777;48.722;8.110;2023-06-22T16:03:12;32.10;99.90
7472;DHT22;3777;48.722;8.110;2023-06-22T16:05:39;32.10;99.90